Vidsel, Sweden

4:08 AM CET on February 06, 2016 (GMT +0100)
Vidsel Air Base | | Change Station
CLOSE
Current Station
Airport
Location: Vidsel,
Elevation: 597 ft
Nearby Weather Stations

Elev 597 ft 65.88 °N, 20.14 °E | Updated 18 minutes ago

Clear
Clear
-15 °F
Feels Like -15 °F
N
1
Wind Variable Wind from Variable

Today
High -- | Low -- °F
--% Chance of Precip.
Yesterday
High -- | Low -- °F
Precip. -- in
Pressure 29.71 in
Visibility 6.2 miles
Clouds
Dew Point -18 °F
Humidity 84%
Rainfall 0.00 in
Snow Depth Not available.
8:19 AM 3:28 PM
Waning Crescent, 8% visible
METAR ESPE 060250Z AUTO VRB01KT 9999 NCD M26/M28 Q1006
Pressure 29.71 in
Visibility 6.2 miles
Clouds
Dew Point -18 °F
Humidity 84%
Rainfall 0.00 in
Snow Depth Not available.
8:19 AM 3:28 PM
Waning Crescent, 8% visible
METAR ESPE 060250Z AUTO VRB01KT 9999 NCD M26/M28 Q1006

10-Day Weather Forecast

Almanac

Astronomy

Feb. 06, 2016 Rise Set
Actual Time
Civil Twilight
Nautical Twilight
Astronomical Twilight
Moon
Length of Visible Light
Length of Day
Tomorrow will be .
, % of the Moon is Illuminated

Today's Extremes

Country Highs Country Lows

Community

WunderPhotos

Upload Photos

1,890,915 photos uploaded!

WunderBlog® & News

Nearby

Air Quality

  Air Quality AQ Index Pollutant
Not available.

Snow Depth

Station Depth Elevation

Earthquake Activity

City Distance Mag. Time & Date
Minimum magnitude displayed is 2.5.

Coastal Water Temperatures

Place Temperature

Stations

Nearby Weather Stations

Station Location Temp. Windchill Dew Point Humidity Wind Precip. Elev Updated Type